Terminal Aerodrome Forecast
Issued by NWS Jackson, MS

Home | Current Version | Previous Version | Text Only | Print | Product List | Glossary On
Versions: 1 2 3 4 5 6 7 8 9 10 11 12 13 14
566
FTUS44 KMEG 292339
TAFTUP
TAF
KTUP 292339Z 3000/3024 11008KT P6SM OVC150
      TEMPO 3009/3013 4SM BR
     FM301500 17012G20KT P6SM VCTS SCT050CB BKN150
      TEMPO 3018/3022 3SM TSRA BKN025CB OVC050=

USA.gov is the U.S. government's official web portal to all federal, state and local government web resources and services.